sensor_id;sensor_type;location;lat;lon;timestamp;P1;durP1;ratioP1;P2;durP2;ratioP2
77038;SDS011;65970;50.476;4.840;2023-06-24T00:03:49;6.40;;;3.65;;
77038;SDS011;65970;50.476;4.840;2023-06-24T00:08:50;4.72;;;3.80;;
77038;SDS011;65970;50.476;4.840;2023-06-24T00:13:50;4.13;;;3.67;;
77038;SDS011;65970;50.476;4.840;2023-06-24T00:18:51;3.67;;;3.35;;
77038;SDS011;65970;50.476;4.840;2023-06-24T00:23:51;4.90;;;3.60;;
77038;SDS011;65970;50.476;4.840;2023-06-24T00:28:52;5.22;;;4.28;;
77038;SDS011;65970;50.476;4.840;2023-06-24T00:33:53;5.00;;;3.58;;
77038;SDS011;65970;50.476;4.840;2023-06-24T00:38:55;6.60;;;4.25;;
77038;SDS011;65970;50.476;4.840;2023-06-24T00:43:56;6.90;;;2.93;;
77038;SDS011;65970;50.476;4.840;2023-06-24T00:48:57;4.75;;;4.10;;
77038;SDS011;65970;50.476;4.840;2023-06-24T00:53:58;6.32;;;3.90;;
77038;SDS011;65970;50.476;4.840;2023-06-24T00:58:58;4.55;;;3.40;;
77038;SDS011;65970;50.476;4.840;2023-06-24T01:04:02;4.35;;;3.50;;
77038;SDS011;65970;50.476;4.840;2023-06-24T01:09:04;5.60;;;3.60;;
77038;SDS011;65970;50.476;4.840;2023-06-24T01:14:04;5.45;;;3.92;;
77038;SDS011;65970;50.476;4.840;2023-06-24T01:35:25;5.47;;;3.70;;
77038;SDS011;65970;50.476;4.840;2023-06-24T01:40:33;4.53;;;3.65;;
77038;SDS011;65970;50.476;4.840;2023-06-24T01:45:40;5.72;;;3.97;;
77038;SDS011;65970;50.476;4.840;2023-06-24T01:50:44;4.10;;;3.63;;
77038;SDS011;65970;50.476;4.840;2023-06-24T01:56:08;6.45;;;4.30;;
77038;SDS011;65970;50.476;4.840;2023-06-24T02:01:12;5.03;;;4.10;;
77038;SDS011;65970;50.476;4.840;2023-06-24T02:06:14;4.82;;;3.88;;
77038;SDS011;65970;50.476;4.840;2023-06-24T02:11:16;6.82;;;3.53;;
77038;SDS011;65970;50.476;4.840;2023-06-24T02:16:18;5.53;;;3.90;;
77038;SDS011;65970;50.476;4.840;2023-06-24T02:21:21;3.97;;;3.58;;
77038;SDS011;65970;50.476;4.840;2023-06-24T02:26:24;5.95;;;3.90;;
77038;SDS011;65970;50.476;4.840;2023-06-24T02:31:25;5.65;;;3.60;;
77038;SDS011;65970;50.476;4.840;2023-06-24T02:36:26;4.50;;;4.10;;
77038;SDS011;65970;50.476;4.840;2023-06-24T02:41:26;7.95;;;4.05;;
77038;SDS011;65970;50.476;4.840;2023-06-24T02:46:27;5.72;;;4.13;;
77038;SDS011;65970;50.476;4.840;2023-06-24T02:56:31;4.25;;;3.15;;
77038;SDS011;65970;50.476;4.840;2023-06-24T03:01:33;4.88;;;3.97;;
77038;SDS011;65970;50.476;4.840;2023-06-24T03:06:35;6.68;;;3.70;;
77038;SDS011;65970;50.476;4.840;2023-06-24T03:11:42;5.43;;;3.97;;
77038;SDS011;65970;50.476;4.840;2023-06-24T03:16:44;3.50;;;3.08;;
77038;SDS011;65970;50.476;4.840;2023-06-24T03:21:44;4.47;;;3.70;;
77038;SDS011;65970;50.476;4.840;2023-06-24T03:26:45;6.30;;;3.85;;
77038;SDS011;65970;50.476;4.840;2023-06-24T03:31:46;4.57;;;3.65;;
77038;SDS011;65970;50.476;4.840;2023-06-24T03:36:47;5.22;;;4.13;;
77038;SDS011;65970;50.476;4.840;2023-06-24T03:41:47;4.97;;;3.97;;
77038;SDS011;65970;50.476;4.840;2023-06-24T03:46:48;8.23;;;4.07;;
77038;SDS011;65970;50.476;4.840;2023-06-24T03:51:48;6.53;;;4.00;;
77038;SDS011;65970;50.476;4.840;2023-06-24T03:56:49;4.90;;;3.65;;
77038;SDS011;65970;50.476;4.840;2023-06-24T04:01:49;4.88;;;3.67;;
77038;SDS011;65970;50.476;4.840;2023-06-24T04:06:50;5.72;;;4.15;;
77038;SDS011;65970;50.476;4.840;2023-06-24T04:11:51;5.80;;;4.35;;
77038;SDS011;65970;50.476;4.840;2023-06-24T04:16:51;4.85;;;4.05;;
77038;SDS011;65970;50.476;4.840;2023-06-24T04:21:52;6.65;;;4.63;;
77038;SDS011;65970;50.476;4.840;2023-06-24T04:26:52;6.35;;;4.18;;
77038;SDS011;65970;50.476;4.840;2023-06-24T04:31:53;7.32;;;4.30;;
77038;SDS011;65970;50.476;4.840;2023-06-24T04:36:53;5.70;;;3.40;;
77038;SDS011;65970;50.476;4.840;2023-06-24T04:41:54;9.20;;;3.88;;
77038;SDS011;65970;50.476;4.840;2023-06-24T04:46:54;7.45;;;3.30;;
77038;SDS011;65970;50.476;4.840;2023-06-24T04:51:55;6.65;;;4.03;;
77038;SDS011;65970;50.476;4.840;2023-06-24T04:56:55;7.93;;;4.32;;
77038;SDS011;65970;50.476;4.840;2023-06-24T05:01:56;7.97;;;4.20;;
77038;SDS011;65970;50.476;4.840;2023-06-24T05:06:56;5.75;;;4.35;;
77038;SDS011;65970;50.476;4.840;2023-06-24T05:11:57;5.75;;;4.10;;
77038;SDS011;65970;50.476;4.840;2023-06-24T05:16:57;7.00;;;4.18;;
77038;SDS011;65970;50.476;4.840;2023-06-24T05:21:58;4.65;;;3.67;;
77038;SDS011;65970;50.476;4.840;2023-06-24T05:27:03;5.28;;;4.13;;
77038;SDS011;65970;50.476;4.840;2023-06-24T05:32:04;5.88;;;4.05;;
77038;SDS011;65970;50.476;4.840;2023-06-24T05:37:05;6.15;;;3.90;;
77038;SDS011;65970;50.476;4.840;2023-06-24T05:42:06;6.18;;;3.70;;
77038;SDS011;65970;50.476;4.840;2023-06-24T05:47:06;5.82;;;3.90;;
77038;SDS011;65970;50.476;4.840;2023-06-24T05:52:07;7.40;;;4.72;;
77038;SDS011;65970;50.476;4.840;2023-06-24T05:57:07;7.78;;;4.75;;
77038;SDS011;65970;50.476;4.840;2023-06-24T06:02:09;6.15;;;4.10;;
77038;SDS011;65970;50.476;4.840;2023-06-24T06:07:10;5.93;;;4.22;;
77038;SDS011;65970;50.476;4.840;2023-06-24T06:12:10;6.35;;;4.20;;
77038;SDS011;65970;50.476;4.840;2023-06-24T06:17:11;6.53;;;4.47;;
77038;SDS011;65970;50.476;4.840;2023-06-24T06:22:13;9.93;;;5.27;;
77038;SDS011;65970;50.476;4.840;2023-06-24T06:27:14;7.00;;;5.43;;
77038;SDS011;65970;50.476;4.840;2023-06-24T06:32:15;8.85;;;4.95;;
77038;SDS011;65970;50.476;4.840;2023-06-24T06:37:15;9.20;;;5.00;;
77038;SDS011;65970;50.476;4.840;2023-06-24T06:42:16;7.53;;;4.85;;
77038;SDS011;65970;50.476;4.840;2023-06-24T06:47:16;6.40;;;3.58;;
77038;SDS011;65970;50.476;4.840;2023-06-24T06:52:17;6.82;;;3.00;;
77038;SDS011;65970;50.476;4.840;2023-06-24T06:57:17;5.63;;;3.30;;
77038;SDS011;65970;50.476;4.840;2023-06-24T07:02:18;5.35;;;3.22;;
77038;SDS011;65970;50.476;4.840;2023-06-24T07:07:18;3.58;;;2.92;;
77038;SDS011;65970;50.476;4.840;2023-06-24T07:12:19;5.53;;;2.90;;
77038;SDS011;65970;50.476;4.840;2023-06-24T07:17:20;5.32;;;2.92;;
77038;SDS011;65970;50.476;4.840;2023-06-24T07:22:20;2.92;;;2.08;;
77038;SDS011;65970;50.476;4.840;2023-06-24T07:27:21;2.20;;;1.85;;
77038;SDS011;65970;50.476;4.840;2023-06-24T07:32:21;3.17;;;1.85;;
77038;SDS011;65970;50.476;4.840;2023-06-24T07:37:22;3.95;;;2.83;;
77038;SDS011;65970;50.476;4.840;2023-06-24T07:42:23;2.60;;;1.80;;
77038;SDS011;65970;50.476;4.840;2023-06-24T07:47:23;2.22;;;1.38;;
77038;SDS011;65970;50.476;4.840;2023-06-24T07:52:24;1.98;;;1.50;;
77038;SDS011;65970;50.476;4.840;2023-06-24T07:57:26;3.03;;;1.90;;
77038;SDS011;65970;50.476;4.840;2023-06-24T08:02:27;3.10;;;2.22;;
77038;SDS011;65970;50.476;4.840;2023-06-24T08:07:27;4.05;;;2.10;;
77038;SDS011;65970;50.476;4.840;2023-06-24T08:12:28;1.58;;;1.30;;
77038;SDS011;65970;50.476;4.840;2023-06-24T08:17:28;3.05;;;1.60;;
77038;SDS011;65970;50.476;4.840;2023-06-24T08:22:29;3.20;;;1.40;;
77038;SDS011;65970;50.476;4.840;2023-06-24T08:27:29;3.28;;;1.17;;
77038;SDS011;65970;50.476;4.840;2023-06-24T08:32:30;1.80;;;1.20;;
77038;SDS011;65970;50.476;4.840;2023-06-24T08:37:30;1.83;;;1.23;;
77038;SDS011;65970;50.476;4.840;2023-06-24T08:42:31;1.50;;;1.08;;
77038;SDS011;65970;50.476;4.840;2023-06-24T08:47:32;2.20;;;1.42;;
77038;SDS011;65970;50.476;4.840;2023-06-24T08:52:35;2.33;;;1.48;;
77038;SDS011;65970;50.476;4.840;2023-06-24T08:57:36;3.83;;;1.27;;
77038;SDS011;65970;50.476;4.840;2023-06-24T09:02:37;1.27;;;1.13;;
77038;SDS011;65970;50.476;4.840;2023-06-24T09:07:38;2.78;;;1.67;;
77038;SDS011;65970;50.476;4.840;2023-06-24T09:12:39;1.83;;;0.90;;
77038;SDS011;65970;50.476;4.840;2023-06-24T09:17:45;1.20;;;1.10;;
77038;SDS011;65970;50.476;4.840;2023-06-24T09:22:46;2.35;;;1.13;;
77038;SDS011;65970;50.476;4.840;2023-06-24T09:27:47;1.15;;;0.82;;
77038;SDS011;65970;50.476;4.840;2023-06-24T09:32:48;2.55;;;1.02;;
77038;SDS011;65970;50.476;4.840;2023-06-24T09:37:50;2.47;;;1.40;;
77038;SDS011;65970;50.476;4.840;2023-06-24T09:42:52;3.78;;;1.30;;
77038;SDS011;65970;50.476;4.840;2023-06-24T09:47:54;2.90;;;1.33;;
77038;SDS011;65970;50.476;4.840;2023-06-24T09:52:56;2.25;;;1.63;;
77038;SDS011;65970;50.476;4.840;2023-06-24T09:57:57;1.45;;;1.25;;
77038;SDS011;65970;50.476;4.840;2023-06-24T10:02:58;1.02;;;0.93;;
77038;SDS011;65970;50.476;4.840;2023-06-24T10:07:58;1.90;;;1.13;;
77038;SDS011;65970;50.476;4.840;2023-06-24T10:12:59;1.20;;;1.10;;
77038;SDS011;65970;50.476;4.840;2023-06-24T10:18:02;2.40;;;1.10;;
77038;SDS011;65970;50.476;4.840;2023-06-24T10:23:23;1.13;;;1.02;;
77038;SDS011;65970;50.476;4.840;2023-06-24T10:44:48;1.35;;;0.85;;
77038;SDS011;65970;50.476;4.840;2023-06-24T10:49:50;1.75;;;1.30;;
77038;SDS011;65970;50.476;4.840;2023-06-24T10:54:51;2.22;;;1.17;;
77038;SDS011;65970;50.476;4.840;2023-06-24T10:59:53;2.17;;;1.00;;
77038;SDS011;65970;50.476;4.840;2023-06-24T11:04:59;1.10;;;0.77;;
77038;SDS011;65970;50.476;4.840;2023-06-24T11:10:02;3.00;;;1.25;;
77038;SDS011;65970;50.476;4.840;2023-06-24T11:15:06;0.98;;;0.82;;
77038;SDS011;65970;50.476;4.840;2023-06-24T11:20:10;1.35;;;1.00;;
77038;SDS011;65970;50.476;4.840;2023-06-24T11:25:18;1.10;;;0.93;;
77038;SDS011;65970;50.476;4.840;2023-06-24T11:30:20;1.42;;;1.05;;
77038;SDS011;65970;50.476;4.840;2023-06-24T11:35:21;2.60;;;1.52;;
77038;SDS011;65970;50.476;4.840;2023-06-24T11:40:21;1.77;;;1.08;;
77038;SDS011;65970;50.476;4.840;2023-06-24T11:45:22;1.20;;;1.00;;
77038;SDS011;65970;50.476;4.840;2023-06-24T11:50:25;2.90;;;1.13;;
77038;SDS011;65970;50.476;4.840;2023-06-24T11:55:27;0.98;;;0.98;;
77038;SDS011;65970;50.476;4.840;2023-06-24T12:05:33;1.85;;;1.27;;
77038;SDS011;65970;50.476;4.840;2023-06-24T12:10:35;0.80;;;0.80;;
77038;SDS011;65970;50.476;4.840;2023-06-24T12:15:36;1.33;;;1.00;;
77038;SDS011;65970;50.476;4.840;2023-06-24T12:20:37;1.80;;;1.08;;
77038;SDS011;65970;50.476;4.840;2023-06-24T12:25:38;2.88;;;1.10;;
77038;SDS011;65970;50.476;4.840;2023-06-24T12:30:38;1.77;;;1.30;;
77038;SDS011;65970;50.476;4.840;2023-06-24T12:35:39;1.77;;;1.33;;
77038;SDS011;65970;50.476;4.840;2023-06-24T12:40:39;1.52;;;1.15;;
77038;SDS011;65970;50.476;4.840;2023-06-24T12:45:40;1.95;;;1.00;;
77038;SDS011;65970;50.476;4.840;2023-06-24T12:50:41;2.00;;;0.90;;
77038;SDS011;65970;50.476;4.840;2023-06-24T12:55:42;2.60;;;1.77;;
77038;SDS011;65970;50.476;4.840;2023-06-24T13:00:42;1.73;;;1.40;;
77038;SDS011;65970;50.476;4.840;2023-06-24T13:05:43;1.63;;;1.50;;
77038;SDS011;65970;50.476;4.840;2023-06-24T13:10:44;3.13;;;1.40;;
77038;SDS011;65970;50.476;4.840;2023-06-24T13:15:44;3.83;;;1.55;;
77038;SDS011;65970;50.476;4.840;2023-06-24T13:20:45;2.38;;;1.42;;
77038;SDS011;65970;50.476;4.840;2023-06-24T13:25:45;2.72;;;1.40;;
77038;SDS011;65970;50.476;4.840;2023-06-24T13:30:46;2.35;;;1.50;;
77038;SDS011;65970;50.476;4.840;2023-06-24T13:35:47;2.22;;;1.65;;
77038;SDS011;65970;50.476;4.840;2023-06-24T13:40:47;1.75;;;1.20;;
77038;SDS011;65970;50.476;4.840;2023-06-24T13:45:48;2.80;;;1.55;;
77038;SDS011;65970;50.476;4.840;2023-06-24T13:50:48;1.67;;;1.35;;
77038;SDS011;65970;50.476;4.840;2023-06-24T13:55:49;3.17;;;1.42;;
77038;SDS011;65970;50.476;4.840;2023-06-24T14:00:49;1.77;;;1.20;;
77038;SDS011;65970;50.476;4.840;2023-06-24T14:05:50;2.00;;;1.48;;
77038;SDS011;65970;50.476;4.840;2023-06-24T14:10:50;2.13;;;1.63;;
77038;SDS011;65970;50.476;4.840;2023-06-24T14:15:51;1.58;;;0.93;;
77038;SDS011;65970;50.476;4.840;2023-06-24T14:20:52;2.85;;;1.20;;
77038;SDS011;65970;50.476;4.840;2023-06-24T14:25:52;1.35;;;1.00;;
77038;SDS011;65970;50.476;4.840;2023-06-24T14:30:53;2.47;;;1.17;;
77038;SDS011;65970;50.476;4.840;2023-06-24T14:35:54;1.13;;;1.00;;
77038;SDS011;65970;50.476;4.840;2023-06-24T14:40:54;1.88;;;1.40;;
77038;SDS011;65970;50.476;4.840;2023-06-24T14:45:55;2.20;;;1.38;;
77038;SDS011;65970;50.476;4.840;2023-06-24T14:50:55;1.70;;;1.25;;
77038;SDS011;65970;50.476;4.840;2023-06-24T14:55:56;1.90;;;1.08;;
77038;SDS011;65970;50.476;4.840;2023-06-24T15:00:56;1.17;;;0.90;;
77038;SDS011;65970;50.476;4.840;2023-06-24T15:05:57;1.40;;;1.00;;
77038;SDS011;65970;50.476;4.840;2023-06-24T15:10:57;2.30;;;1.27;;
77038;SDS011;65970;50.476;4.840;2023-06-24T15:15:58;2.35;;;1.90;;
77038;SDS011;65970;50.476;4.840;2023-06-24T15:20:58;1.63;;;0.80;;
77038;SDS011;65970;50.476;4.840;2023-06-24T15:25:59;3.83;;;1.50;;
77038;SDS011;65970;50.476;4.840;2023-06-24T15:31:00;1.25;;;1.10;;
77038;SDS011;65970;50.476;4.840;2023-06-24T15:36:00;1.90;;;1.48;;
77038;SDS011;65970;50.476;4.840;2023-06-24T15:41:01;1.55;;;1.15;;
77038;SDS011;65970;50.476;4.840;2023-06-24T15:46:01;1.58;;;1.25;;
77038;SDS011;65970;50.476;4.840;2023-06-24T15:51:02;1.85;;;1.15;;
77038;SDS011;65970;50.476;4.840;2023-06-24T15:56:02;1.88;;;1.30;;
77038;SDS011;65970;50.476;4.840;2023-06-24T16:01:03;1.60;;;1.33;;
77038;SDS011;65970;50.476;4.840;2023-06-24T16:06:04;2.22;;;1.58;;
77038;SDS011;65970;50.476;4.840;2023-06-24T16:11:04;3.05;;;1.77;;
77038;SDS011;65970;50.476;4.840;2023-06-24T16:16:05;2.03;;;1.60;;
77038;SDS011;65970;50.476;4.840;2023-06-24T16:21:05;1.73;;;1.42;;
77038;SDS011;65970;50.476;4.840;2023-06-24T16:26:06;1.50;;;1.40;;
77038;SDS011;65970;50.476;4.840;2023-06-24T16:31:07;2.35;;;1.58;;
77038;SDS011;65970;50.476;4.840;2023-06-24T16:36:07;3.00;;;1.90;;
77038;SDS011;65970;50.476;4.840;2023-06-24T16:41:08;3.38;;;1.73;;
77038;SDS011;65970;50.476;4.840;2023-06-24T16:46:08;2.35;;;1.63;;
77038;SDS011;65970;50.476;4.840;2023-06-24T16:51:09;3.22;;;1.92;;
77038;SDS011;65970;50.476;4.840;2023-06-24T16:56:09;2.63;;;1.88;;
77038;SDS011;65970;50.476;4.840;2023-06-24T17:01:10;4.47;;;2.17;;
77038;SDS011;65970;50.476;4.840;2023-06-24T17:06:11;4.43;;;1.98;;
77038;SDS011;65970;50.476;4.840;2023-06-24T17:11:12;3.83;;;2.17;;
77038;SDS011;65970;50.476;4.840;2023-06-24T17:16:13;2.45;;;2.05;;
77038;SDS011;65970;50.476;4.840;2023-06-24T17:21:13;2.97;;;1.98;;
77038;SDS011;65970;50.476;4.840;2023-06-24T17:26:14;5.15;;;2.95;;
77038;SDS011;65970;50.476;4.840;2023-06-24T17:31:15;3.60;;;2.22;;
77038;SDS011;65970;50.476;4.840;2023-06-24T17:36:15;3.75;;;2.20;;
77038;SDS011;65970;50.476;4.840;2023-06-24T17:41:16;3.55;;;2.35;;
77038;SDS011;65970;50.476;4.840;2023-06-24T17:46:16;4.55;;;2.47;;
77038;SDS011;65970;50.476;4.840;2023-06-24T17:51:17;2.85;;;2.00;;
77038;SDS011;65970;50.476;4.840;2023-06-24T17:56:17;2.92;;;2.13;;
77038;SDS011;65970;50.476;4.840;2023-06-24T18:01:18;4.07;;;2.35;;
77038;SDS011;65970;50.476;4.840;2023-06-24T18:06:18;5.68;;;2.13;;
77038;SDS011;65970;50.476;4.840;2023-06-24T18:11:19;2.55;;;1.83;;
77038;SDS011;65970;50.476;4.840;2023-06-24T18:16:19;3.35;;;2.38;;
77038;SDS011;65970;50.476;4.840;2023-06-24T18:21:20;3.05;;;2.00;;
77038;SDS011;65970;50.476;4.840;2023-06-24T18:26:21;4.05;;;2.38;;
77038;SDS011;65970;50.476;4.840;2023-06-24T18:31:21;2.88;;;2.30;;
77038;SDS011;65970;50.476;4.840;2023-06-24T18:36:22;3.95;;;2.90;;
77038;SDS011;65970;50.476;4.840;2023-06-24T18:41:22;4.32;;;2.20;;
77038;SDS011;65970;50.476;4.840;2023-06-24T18:46:23;3.83;;;2.70;;
77038;SDS011;65970;50.476;4.840;2023-06-24T18:51:23;3.38;;;2.25;;
77038;SDS011;65970;50.476;4.840;2023-06-24T18:56:24;4.00;;;1.65;;
77038;SDS011;65970;50.476;4.840;2023-06-24T19:01:24;2.80;;;2.15;;
77038;SDS011;65970;50.476;4.840;2023-06-24T19:06:25;5.32;;;2.28;;
77038;SDS011;65970;50.476;4.840;2023-06-24T19:11:25;3.38;;;2.42;;
77038;SDS011;65970;50.476;4.840;2023-06-24T19:16:26;3.45;;;2.33;;
77038;SDS011;65970;50.476;4.840;2023-06-24T19:21:26;2.75;;;2.20;;
77038;SDS011;65970;50.476;4.840;2023-06-24T19:26:27;2.45;;;1.92;;
77038;SDS011;65970;50.476;4.840;2023-06-24T19:31:28;2.30;;;2.00;;
77038;SDS011;65970;50.476;4.840;2023-06-24T19:36:28;3.05;;;2.35;;
77038;SDS011;65970;50.476;4.840;2023-06-24T19:41:29;6.55;;;2.95;;
77038;SDS011;65970;50.476;4.840;2023-06-24T19:46:29;4.38;;;2.20;;
77038;SDS011;65970;50.476;4.840;2023-06-24T19:51:30;3.95;;;2.08;;
77038;SDS011;65970;50.476;4.840;2023-06-24T19:56:30;2.67;;;2.30;;
77038;SDS011;65970;50.476;4.840;2023-06-24T20:01:31;2.72;;;2.13;;
77038;SDS011;65970;50.476;4.840;2023-06-24T20:06:31;3.67;;;2.10;;
77038;SDS011;65970;50.476;4.840;2023-06-24T20:11:32;10.35;;;3.17;;
77038;SDS011;65970;50.476;4.840;2023-06-24T20:16:32;3.72;;;2.58;;
77038;SDS011;65970;50.476;4.840;2023-06-24T20:21:33;3.13;;;2.30;;
77038;SDS011;65970;50.476;4.840;2023-06-24T20:26:34;2.85;;;2.10;;
77038;SDS011;65970;50.476;4.840;2023-06-24T20:31:34;4.82;;;2.20;;
77038;SDS011;65970;50.476;4.840;2023-06-24T20:36:35;4.80;;;2.72;;
77038;SDS011;65970;50.476;4.840;2023-06-24T20:41:36;3.85;;;1.70;;
77038;SDS011;65970;50.476;4.840;2023-06-24T20:46:36;2.88;;;2.20;;
77038;SDS011;65970;50.476;4.840;2023-06-24T20:51:37;3.08;;;2.55;;
77038;SDS011;65970;50.476;4.840;2023-06-24T20:56:37;2.85;;;2.22;;
77038;SDS011;65970;50.476;4.840;2023-06-24T21:01:38;3.67;;;2.08;;
77038;SDS011;65970;50.476;4.840;2023-06-24T21:06:38;2.83;;;2.20;;
77038;SDS011;65970;50.476;4.840;2023-06-24T21:11:39;2.38;;;1.67;;
77038;SDS011;65970;50.476;4.840;2023-06-24T21:16:39;5.15;;;2.40;;
77038;SDS011;65970;50.476;4.840;2023-06-24T21:21:40;3.20;;;1.83;;
77038;SDS011;65970;50.476;4.840;2023-06-24T21:26:40;2.88;;;2.38;;
77038;SDS011;65970;50.476;4.840;2023-06-24T21:31:41;5.07;;;2.13;;
77038;SDS011;65970;50.476;4.840;2023-06-24T21:36:42;3.88;;;2.17;;
77038;SDS011;65970;50.476;4.840;2023-06-24T21:41:42;3.65;;;2.70;;
77038;SDS011;65970;50.476;4.840;2023-06-24T21:46:43;4.55;;;2.67;;
77038;SDS011;65970;50.476;4.840;2023-06-24T21:51:43;4.07;;;2.60;;
77038;SDS011;65970;50.476;4.840;2023-06-24T21:56:44;4.80;;;2.35;;
77038;SDS011;65970;50.476;4.840;2023-06-24T22:01:44;4.55;;;1.90;;
77038;SDS011;65970;50.476;4.840;2023-06-24T22:06:45;2.95;;;2.20;;
77038;SDS011;65970;50.476;4.840;2023-06-24T22:11:45;5.22;;;2.58;;
77038;SDS011;65970;50.476;4.840;2023-06-24T22:16:46;3.55;;;2.22;;
77038;SDS011;65970;50.476;4.840;2023-06-24T22:21:46;3.55;;;3.00;;
77038;SDS011;65970;50.476;4.840;2023-06-24T22:26:47;5.03;;;2.83;;
77038;SDS011;65970;50.476;4.840;2023-06-24T22:31:47;3.28;;;2.42;;
77038;SDS011;65970;50.476;4.840;2023-06-24T22:36:48;3.83;;;3.22;;
77038;SDS011;65970;50.476;4.840;2023-06-24T22:41:48;3.97;;;2.45;;
77038;SDS011;65970;50.476;4.840;2023-06-24T22:46:49;2.60;;;2.10;;
77038;SDS011;65970;50.476;4.840;2023-06-24T22:51:50;3.60;;;2.53;;
77038;SDS011;65970;50.476;4.840;2023-06-24T22:56:50;6.25;;;2.22;;
77038;SDS011;65970;50.476;4.840;2023-06-24T23:01:51;2.60;;;2.25;;
77038;SDS011;65970;50.476;4.840;2023-06-24T23:06:52;3.40;;;2.55;;
77038;SDS011;65970;50.476;4.840;2023-06-24T23:11:53;3.30;;;2.17;;
77038;SDS011;65970;50.476;4.840;2023-06-24T23:16:54;3.95;;;2.88;;
77038;SDS011;65970;50.476;4.840;2023-06-24T23:21:55;3.83;;;2.70;;
77038;SDS011;65970;50.476;4.840;2023-06-24T23:26:56;5.28;;;2.45;;
77038;SDS011;65970;50.476;4.840;2023-06-24T23:31:57;5.55;;;2.55;;
77038;SDS011;65970;50.476;4.840;2023-06-24T23:36:58;2.97;;;2.17;;
77038;SDS011;65970;50.476;4.840;2023-06-24T23:41:59;3.00;;;2.03;;
77038;SDS011;65970;50.476;4.840;2023-06-24T23:47:01;5.13;;;2.50;;
77038;SDS011;65970;50.476;4.840;2023-06-24T23:52:01;2.90;;;2.53;;
77038;SDS011;65970;50.476;4.840;2023-06-24T23:57:02;3.13;;;2.00;;
